sensor_id;sensor_type;location;lat;lon;timestamp;P1;durP1;ratioP1;P2;durP2;ratioP2
13933;SDS011;7039;52.168;9.866;2022-09-09T00:00:13;3.00;;;1.50;;
13933;SDS011;7039;52.168;9.866;2022-09-09T00:02:42;3.38;;;1.58;;
13933;SDS011;7039;52.168;9.866;2022-09-09T00:05:17;1.98;;;1.33;;
13933;SDS011;7039;52.168;9.866;2022-09-09T00:07:54;3.10;;;1.23;;
13933;SDS011;7039;52.168;9.866;2022-09-09T00:10:26;3.25;;;1.33;;
13933;SDS011;7039;52.168;9.866;2022-09-09T00:12:57;4.70;;;1.30;;
13933;SDS011;7039;52.168;9.866;2022-09-09T00:15:33;2.37;;;1.10;;
13933;SDS011;7039;52.168;9.866;2022-09-09T00:18:10;2.17;;;1.10;;
13933;SDS011;7039;52.168;9.866;2022-09-09T00:20:44;3.05;;;1.30;;
13933;SDS011;7039;52.168;9.866;2022-09-09T00:23:17;2.92;;;1.25;;
13933;SDS011;7039;52.168;9.866;2022-09-09T00:25:52;2.45;;;1.15;;
13933;SDS011;7039;52.168;9.866;2022-09-09T00:28:26;2.75;;;1.20;;
13933;SDS011;7039;52.168;9.866;2022-09-09T00:30:55;2.65;;;1.10;;
13933;SDS011;7039;52.168;9.866;2022-09-09T00:33:26;3.03;;;1.40;;
13933;SDS011;7039;52.168;9.866;2022-09-09T00:35:54;3.45;;;1.50;;
13933;SDS011;7039;52.168;9.866;2022-09-09T00:38:26;5.70;;;1.40;;
13933;SDS011;7039;52.168;9.866;2022-09-09T00:41:03;3.45;;;1.30;;
13933;SDS011;7039;52.168;9.866;2022-09-09T00:43:37;2.80;;;1.20;;
13933;SDS011;7039;52.168;9.866;2022-09-09T00:46:19;2.00;;;1.30;;
13933;SDS011;7039;52.168;9.866;2022-09-09T00:49:00;3.05;;;1.40;;
13933;SDS011;7039;52.168;9.866;2022-09-09T00:51:38;2.85;;;1.25;;
13933;SDS011;7039;52.168;9.866;2022-09-09T00:57:14;3.38;;;1.13;;
13933;SDS011;7039;52.168;9.866;2022-09-09T00:59:50;4.28;;;1.38;;
13933;SDS011;7039;52.168;9.866;2022-09-09T01:02:21;2.45;;;1.20;;
13933;SDS011;7039;52.168;9.866;2022-09-09T01:04:54;3.08;;;1.40;;
13933;SDS011;7039;52.168;9.866;2022-09-09T01:07:21;5.33;;;1.40;;
13933;SDS011;7039;52.168;9.866;2022-09-09T01:09:52;2.15;;;1.30;;
13933;SDS011;7039;52.168;9.866;2022-09-09T01:12:26;3.78;;;1.48;;
13933;SDS011;7039;52.168;9.866;2022-09-09T01:15:08;4.53;;;1.25;;
13933;SDS011;7039;52.168;9.866;2022-09-09T01:17:40;5.15;;;1.40;;
13933;SDS011;7039;52.168;9.866;2022-09-09T01:20:17;3.83;;;1.20;;
13933;SDS011;7039;52.168;9.866;2022-09-09T01:22:50;2.58;;;1.20;;
13933;SDS011;7039;52.168;9.866;2022-09-09T01:28:17;5.00;;;1.30;;
13933;SDS011;7039;52.168;9.866;2022-09-09T01:30:48;3.95;;;1.10;;
13933;SDS011;7039;52.168;9.866;2022-09-09T01:33:17;3.20;;;1.30;;
13933;SDS011;7039;52.168;9.866;2022-09-09T01:35:45;4.90;;;1.30;;
13933;SDS011;7039;52.168;9.866;2022-09-09T01:38:16;4.40;;;1.50;;
13933;SDS011;7039;52.168;9.866;2022-09-09T01:40:44;2.72;;;1.35;;
13933;SDS011;7039;52.168;9.866;2022-09-09T01:43:10;5.00;;;1.40;;
13933;SDS011;7039;52.168;9.866;2022-09-09T01:45:38;3.00;;;1.30;;
13933;SDS011;7039;52.168;9.866;2022-09-09T01:48:07;5.60;;;1.40;;
13933;SDS011;7039;52.168;9.866;2022-09-09T01:50:33;3.67;;;1.40;;
13933;SDS011;7039;52.168;9.866;2022-09-09T01:53:00;4.80;;;1.70;;
13933;SDS011;7039;52.168;9.866;2022-09-09T01:55:29;3.70;;;1.40;;
13933;SDS011;7039;52.168;9.866;2022-09-09T01:58:00;4.43;;;1.40;;
13933;SDS011;7039;52.168;9.866;2022-09-09T02:00:43;2.83;;;1.33;;
13933;SDS011;7039;52.168;9.866;2022-09-09T02:03:18;4.88;;;1.60;;
13933;SDS011;7039;52.168;9.866;2022-09-09T02:05:52;3.55;;;1.40;;
13933;SDS011;7039;52.168;9.866;2022-09-09T02:08:29;3.33;;;1.48;;
13933;SDS011;7039;52.168;9.866;2022-09-09T02:11:05;4.22;;;1.45;;
13933;SDS011;7039;52.168;9.866;2022-09-09T02:13:37;6.68;;;1.50;;
13933;SDS011;7039;52.168;9.866;2022-09-09T02:16:07;2.17;;;1.30;;
13933;SDS011;7039;52.168;9.866;2022-09-09T02:18:38;4.10;;;1.50;;
13933;SDS011;7039;52.168;9.866;2022-09-09T02:21:09;7.88;;;1.48;;
13933;SDS011;7039;52.168;9.866;2022-09-09T02:23:38;2.60;;;1.45;;
13933;SDS011;7039;52.168;9.866;2022-09-09T02:26:06;5.20;;;1.60;;
13933;SDS011;7039;52.168;9.866;2022-09-09T02:28:36;4.55;;;1.95;;
13933;SDS011;7039;52.168;9.866;2022-09-09T02:31:05;4.30;;;1.45;;
13933;SDS011;7039;52.168;9.866;2022-09-09T02:33:33;3.13;;;1.60;;
13933;SDS011;7039;52.168;9.866;2022-09-09T02:36:04;2.45;;;1.33;;
13933;SDS011;7039;52.168;9.866;2022-09-09T02:38:33;6.03;;;1.65;;
13933;SDS011;7039;52.168;9.866;2022-09-09T02:41:04;2.70;;;1.30;;
13933;SDS011;7039;52.168;9.866;2022-09-09T02:43:31;3.78;;;1.50;;
13933;SDS011;7039;52.168;9.866;2022-09-09T02:46:01;5.65;;;1.80;;
13933;SDS011;7039;52.168;9.866;2022-09-09T02:48:36;4.07;;;1.95;;
13933;SDS011;7039;52.168;9.866;2022-09-09T02:51:13;8.38;;;2.08;;
13933;SDS011;7039;52.168;9.866;2022-09-09T02:53:46;4.72;;;2.00;;
13933;SDS011;7039;52.168;9.866;2022-09-09T02:56:23;3.60;;;1.83;;
13933;SDS011;7039;52.168;9.866;2022-09-09T02:58:53;3.22;;;1.75;;
13933;SDS011;7039;52.168;9.866;2022-09-09T03:01:20;3.50;;;1.60;;
13933;SDS011;7039;52.168;9.866;2022-09-09T03:03:48;3.97;;;1.70;;
13933;SDS011;7039;52.168;9.866;2022-09-09T03:06:15;3.63;;;1.75;;
13933;SDS011;7039;52.168;9.866;2022-09-09T03:08:41;5.78;;;1.63;;
13933;SDS011;7039;52.168;9.866;2022-09-09T03:11:08;4.70;;;1.65;;
13933;SDS011;7039;52.168;9.866;2022-09-09T03:13:35;3.42;;;1.70;;
13933;SDS011;7039;52.168;9.866;2022-09-09T03:16:02;4.35;;;1.75;;
13933;SDS011;7039;52.168;9.866;2022-09-09T03:18:30;3.15;;;1.48;;
13933;SDS011;7039;52.168;9.866;2022-09-09T03:20:58;5.15;;;1.80;;
13933;SDS011;7039;52.168;9.866;2022-09-09T03:23:25;4.15;;;1.65;;
13933;SDS011;7039;52.168;9.866;2022-09-09T03:25:52;4.67;;;1.53;;
13933;SDS011;7039;52.168;9.866;2022-09-09T03:28:21;5.68;;;1.73;;
13933;SDS011;7039;52.168;9.866;2022-09-09T03:30:48;3.33;;;1.63;;
13933;SDS011;7039;52.168;9.866;2022-09-09T03:33:15;5.30;;;1.73;;
13933;SDS011;7039;52.168;9.866;2022-09-09T03:35:44;2.85;;;1.40;;
13933;SDS011;7039;52.168;9.866;2022-09-09T03:38:15;3.67;;;1.75;;
13933;SDS011;7039;52.168;9.866;2022-09-09T03:40:48;5.28;;;1.73;;
13933;SDS011;7039;52.168;9.866;2022-09-09T03:43:15;3.50;;;1.60;;
13933;SDS011;7039;52.168;9.866;2022-09-09T03:45:44;4.32;;;1.60;;
13933;SDS011;7039;52.168;9.866;2022-09-09T03:48:12;6.43;;;1.73;;
13933;SDS011;7039;52.168;9.866;2022-09-09T03:50:39;5.22;;;1.60;;
13933;SDS011;7039;52.168;9.866;2022-09-09T03:53:05;4.63;;;1.55;;
13933;SDS011;7039;52.168;9.866;2022-09-09T03:55:33;5.78;;;1.60;;
13933;SDS011;7039;52.168;9.866;2022-09-09T03:58:00;5.00;;;1.50;;
13933;SDS011;7039;52.168;9.866;2022-09-09T04:00:26;3.85;;;1.58;;
13933;SDS011;7039;52.168;9.866;2022-09-09T04:02:54;5.13;;;1.30;;
13933;SDS011;7039;52.168;9.866;2022-09-09T04:05:21;4.15;;;1.50;;
13933;SDS011;7039;52.168;9.866;2022-09-09T04:07:48;5.70;;;1.60;;
13933;SDS011;7039;52.168;9.866;2022-09-09T04:10:16;4.35;;;1.85;;
13933;SDS011;7039;52.168;9.866;2022-09-09T04:12:44;3.25;;;1.50;;
13933;SDS011;7039;52.168;9.866;2022-09-09T04:15:11;4.88;;;1.65;;
13933;SDS011;7039;52.168;9.866;2022-09-09T04:17:37;4.13;;;1.40;;
13933;SDS011;7039;52.168;9.866;2022-09-09T04:20:04;3.67;;;1.50;;
13933;SDS011;7039;52.168;9.866;2022-09-09T04:22:32;3.55;;;1.40;;
13933;SDS011;7039;52.168;9.866;2022-09-09T04:24:59;3.20;;;1.60;;
13933;SDS011;7039;52.168;9.866;2022-09-09T04:27:25;5.15;;;1.80;;
13933;SDS011;7039;52.168;9.866;2022-09-09T04:29:53;3.03;;;1.70;;
13933;SDS011;7039;52.168;9.866;2022-09-09T04:32:21;5.07;;;1.70;;
13933;SDS011;7039;52.168;9.866;2022-09-09T04:34:48;6.22;;;1.90;;
13933;SDS011;7039;52.168;9.866;2022-09-09T04:37:14;3.67;;;1.52;;
13933;SDS011;7039;52.168;9.866;2022-09-09T04:39:41;7.45;;;2.10;;
13933;SDS011;7039;52.168;9.866;2022-09-09T04:42:08;9.93;;;2.30;;
13933;SDS011;7039;52.168;9.866;2022-09-09T04:44:34;5.72;;;2.28;;
13933;SDS011;7039;52.168;9.866;2022-09-09T04:47:02;5.90;;;2.40;;
13933;SDS011;7039;52.168;9.866;2022-09-09T04:49:29;5.50;;;2.13;;
13933;SDS011;7039;52.168;9.866;2022-09-09T04:51:56;5.95;;;2.50;;
13933;SDS011;7039;52.168;9.866;2022-09-09T04:54:23;5.40;;;2.03;;
13933;SDS011;7039;52.168;9.866;2022-09-09T04:56:50;6.40;;;2.17;;
13933;SDS011;7039;52.168;9.866;2022-09-09T04:59:16;6.87;;;2.43;;
13933;SDS011;7039;52.168;9.866;2022-09-09T05:01:43;6.13;;;2.00;;
13933;SDS011;7039;52.168;9.866;2022-09-09T05:04:11;3.78;;;1.95;;
13933;SDS011;7039;52.168;9.866;2022-09-09T05:06:37;4.20;;;2.00;;
13933;SDS011;7039;52.168;9.866;2022-09-09T05:09:03;5.88;;;1.80;;
13933;SDS011;7039;52.168;9.866;2022-09-09T05:11:30;5.07;;;2.00;;
13933;SDS011;7039;52.168;9.866;2022-09-09T05:14:01;7.88;;;2.25;;
13933;SDS011;7039;52.168;9.866;2022-09-09T05:16:28;3.55;;;1.70;;
13933;SDS011;7039;52.168;9.866;2022-09-09T05:18:55;3.80;;;1.90;;
13933;SDS011;7039;52.168;9.866;2022-09-09T05:21:24;4.03;;;1.85;;
13933;SDS011;7039;52.168;9.866;2022-09-09T05:23:53;3.67;;;1.75;;
13933;SDS011;7039;52.168;9.866;2022-09-09T05:26:20;6.15;;;1.83;;
13933;SDS011;7039;52.168;9.866;2022-09-09T05:28:49;3.63;;;1.98;;
13933;SDS011;7039;52.168;9.866;2022-09-09T05:31:16;5.03;;;1.85;;
13933;SDS011;7039;52.168;9.866;2022-09-09T05:33:44;7.22;;;2.00;;
13933;SDS011;7039;52.168;9.866;2022-09-09T05:36:12;6.07;;;1.90;;
13933;SDS011;7039;52.168;9.866;2022-09-09T05:38:41;3.20;;;1.70;;
13933;SDS011;7039;52.168;9.866;2022-09-09T05:41:08;4.60;;;1.83;;
13933;SDS011;7039;52.168;9.866;2022-09-09T05:43:36;4.80;;;2.00;;
13933;SDS011;7039;52.168;9.866;2022-09-09T05:46:03;5.77;;;1.90;;
13933;SDS011;7039;52.168;9.866;2022-09-09T05:48:32;3.92;;;1.92;;
13933;SDS011;7039;52.168;9.866;2022-09-09T05:50:59;4.10;;;1.83;;
13933;SDS011;7039;52.168;9.866;2022-09-09T05:53:27;4.85;;;1.98;;
13933;SDS011;7039;52.168;9.866;2022-09-09T05:56:02;7.50;;;1.90;;
13933;SDS011;7039;52.168;9.866;2022-09-09T05:58:30;3.95;;;2.05;;
13933;SDS011;7039;52.168;9.866;2022-09-09T06:01:00;4.87;;;1.80;;
13933;SDS011;7039;52.168;9.866;2022-09-09T06:03:27;5.00;;;1.60;;
13933;SDS011;7039;52.168;9.866;2022-09-09T06:05:57;3.78;;;1.70;;
13933;SDS011;7039;52.168;9.866;2022-09-09T06:08:25;4.68;;;1.90;;
13933;SDS011;7039;52.168;9.866;2022-09-09T06:10:51;4.60;;;2.05;;
13933;SDS011;7039;52.168;9.866;2022-09-09T06:13:19;3.90;;;1.60;;
13933;SDS011;7039;52.168;9.866;2022-09-09T06:15:49;4.63;;;1.80;;
13933;SDS011;7039;52.168;9.866;2022-09-09T06:18:16;5.57;;;1.80;;
13933;SDS011;7039;52.168;9.866;2022-09-09T06:20:43;8.77;;;2.97;;
13933;SDS011;7039;52.168;9.866;2022-09-09T06:23:09;7.55;;;2.75;;
13933;SDS011;7039;52.168;9.866;2022-09-09T06:25:37;11.03;;;2.47;;
13933;SDS011;7039;52.168;9.866;2022-09-09T06:28:05;4.95;;;1.98;;
13933;SDS011;7039;52.168;9.866;2022-09-09T06:30:33;6.03;;;2.03;;
13933;SDS011;7039;52.168;9.866;2022-09-09T06:32:59;4.15;;;1.92;;
13933;SDS011;7039;52.168;9.866;2022-09-09T06:35:26;6.10;;;1.90;;
13933;SDS011;7039;52.168;9.866;2022-09-09T06:37:53;6.78;;;2.20;;
13933;SDS011;7039;52.168;9.866;2022-09-09T06:40:20;4.32;;;2.40;;
13933;SDS011;7039;52.168;9.866;2022-09-09T06:42:46;5.13;;;2.58;;
13933;SDS011;7039;52.168;9.866;2022-09-09T06:45:13;5.45;;;2.13;;
13933;SDS011;7039;52.168;9.866;2022-09-09T06:47:41;4.07;;;1.87;;
13933;SDS011;7039;52.168;9.866;2022-09-09T06:50:08;4.85;;;1.88;;
13933;SDS011;7039;52.168;9.866;2022-09-09T06:52:35;7.90;;;2.30;;
13933;SDS011;7039;52.168;9.866;2022-09-09T06:55:01;3.63;;;1.90;;
13933;SDS011;7039;52.168;9.866;2022-09-09T06:57:28;5.80;;;1.73;;
13933;SDS011;7039;52.168;9.866;2022-09-09T06:59:55;2.33;;;1.45;;
13933;SDS011;7039;52.168;9.866;2022-09-09T07:02:22;5.00;;;1.70;;
13933;SDS011;7039;52.168;9.866;2022-09-09T07:04:50;4.00;;;1.52;;
13933;SDS011;7039;52.168;9.866;2022-09-09T07:07:17;3.83;;;1.63;;
13933;SDS011;7039;52.168;9.866;2022-09-09T07:09:43;5.25;;;1.67;;
13933;SDS011;7039;52.168;9.866;2022-09-09T07:12:10;6.00;;;1.80;;
13933;SDS011;7039;52.168;9.866;2022-09-09T07:14:38;4.32;;;1.60;;
13933;SDS011;7039;52.168;9.866;2022-09-09T07:17:05;4.78;;;1.60;;
13933;SDS011;7039;52.168;9.866;2022-09-09T07:19:31;4.15;;;1.55;;
13933;SDS011;7039;52.168;9.866;2022-09-09T07:22:00;4.40;;;1.80;;
13933;SDS011;7039;52.168;9.866;2022-09-09T07:24:27;8.52;;;2.03;;
13933;SDS011;7039;52.168;9.866;2022-09-09T07:26:55;5.55;;;1.60;;
13933;SDS011;7039;52.168;9.866;2022-09-09T07:29:22;4.82;;;1.77;;
13933;SDS011;7039;52.168;9.866;2022-09-09T07:31:48;6.20;;;1.80;;
13933;SDS011;7039;52.168;9.866;2022-09-09T07:34:15;4.78;;;1.83;;
13933;SDS011;7039;52.168;9.866;2022-09-09T07:36:41;5.87;;;1.80;;
13933;SDS011;7039;52.168;9.866;2022-09-09T07:39:09;4.43;;;1.80;;
13933;SDS011;7039;52.168;9.866;2022-09-09T07:41:38;6.03;;;1.60;;
13933;SDS011;7039;52.168;9.866;2022-09-09T07:44:06;7.00;;;1.67;;
13933;SDS011;7039;52.168;9.866;2022-09-09T07:46:34;3.17;;;1.53;;
13933;SDS011;7039;52.168;9.866;2022-09-09T07:49:02;4.13;;;1.48;;
13933;SDS011;7039;52.168;9.866;2022-09-09T07:51:29;5.47;;;1.70;;
13933;SDS011;7039;52.168;9.866;2022-09-09T07:53:58;3.50;;;1.50;;
13933;SDS011;7039;52.168;9.866;2022-09-09T07:56:28;5.28;;;1.55;;
13933;SDS011;7039;52.168;9.866;2022-09-09T07:58:56;8.90;;;1.60;;
13933;SDS011;7039;52.168;9.866;2022-09-09T08:01:25;3.88;;;1.45;;
13933;SDS011;7039;52.168;9.866;2022-09-09T08:03:54;6.77;;;1.67;;
13933;SDS011;7039;52.168;9.866;2022-09-09T08:06:24;5.17;;;1.60;;
13933;SDS011;7039;52.168;9.866;2022-09-09T08:08:51;4.95;;;1.60;;
13933;SDS011;7039;52.168;9.866;2022-09-09T08:11:18;3.40;;;1.50;;
13933;SDS011;7039;52.168;9.866;2022-09-09T08:13:46;5.38;;;1.85;;
13933;SDS011;7039;52.168;9.866;2022-09-09T08:16:14;6.35;;;1.50;;
13933;SDS011;7039;52.168;9.866;2022-09-09T08:18:42;5.50;;;1.60;;
13933;SDS011;7039;52.168;9.866;2022-09-09T08:21:10;3.50;;;1.35;;
13933;SDS011;7039;52.168;9.866;2022-09-09T08:23:38;3.83;;;1.50;;
13933;SDS011;7039;52.168;9.866;2022-09-09T08:26:06;5.57;;;1.48;;
13933;SDS011;7039;52.168;9.866;2022-09-09T08:28:35;4.72;;;1.52;;
13933;SDS011;7039;52.168;9.866;2022-09-09T08:31:07;5.57;;;1.50;;
13933;SDS011;7039;52.168;9.866;2022-09-09T08:33:35;5.53;;;1.50;;
13933;SDS011;7039;52.168;9.866;2022-09-09T08:36:03;4.47;;;1.47;;
13933;SDS011;7039;52.168;9.866;2022-09-09T08:38:30;6.25;;;1.80;;
13933;SDS011;7039;52.168;9.866;2022-09-09T08:40:58;5.28;;;1.60;;
13933;SDS011;7039;52.168;9.866;2022-09-09T08:43:33;6.32;;;1.50;;
13933;SDS011;7039;52.168;9.866;2022-09-09T08:46:00;4.45;;;1.63;;
13933;SDS011;7039;52.168;9.866;2022-09-09T08:48:39;5.50;;;1.33;;
13933;SDS011;7039;52.168;9.866;2022-09-09T08:51:10;4.68;;;1.52;;
13933;SDS011;7039;52.168;9.866;2022-09-09T08:53:39;6.25;;;1.73;;
13933;SDS011;7039;52.168;9.866;2022-09-09T08:56:10;4.47;;;1.60;;
13933;SDS011;7039;52.168;9.866;2022-09-09T08:58:42;4.83;;;1.77;;
13933;SDS011;7039;52.168;9.866;2022-09-09T09:01:16;5.50;;;1.75;;
13933;SDS011;7039;52.168;9.866;2022-09-09T09:03:59;4.53;;;1.50;;
13933;SDS011;7039;52.168;9.866;2022-09-09T09:06:35;6.45;;;1.60;;
13933;SDS011;7039;52.168;9.866;2022-09-09T09:09:11;4.90;;;1.60;;
13933;SDS011;7039;52.168;9.866;2022-09-09T09:11:48;3.13;;;1.30;;
13933;SDS011;7039;52.168;9.866;2022-09-09T09:14:17;4.35;;;1.90;;
13933;SDS011;7039;52.168;9.866;2022-09-09T09:16:48;5.50;;;1.57;;
13933;SDS011;7039;52.168;9.866;2022-09-09T09:19:20;4.30;;;1.48;;
13933;SDS011;7039;52.168;9.866;2022-09-09T09:21:48;5.70;;;1.70;;
13933;SDS011;7039;52.168;9.866;2022-09-09T09:24:20;6.68;;;1.65;;
13933;SDS011;7039;52.168;9.866;2022-09-09T09:26:53;4.63;;;1.55;;
13933;SDS011;7039;52.168;9.866;2022-09-09T09:29:20;4.97;;;1.67;;
13933;SDS011;7039;52.168;9.866;2022-09-09T09:31:48;3.97;;;1.50;;
13933;SDS011;7039;52.168;9.866;2022-09-09T09:34:21;6.03;;;1.50;;
13933;SDS011;7039;52.168;9.866;2022-09-09T09:36:52;5.30;;;1.42;;
13933;SDS011;7039;52.168;9.866;2022-09-09T09:39:24;6.00;;;1.50;;
13933;SDS011;7039;52.168;9.866;2022-09-09T09:41:52;4.83;;;1.33;;
13933;SDS011;7039;52.168;9.866;2022-09-09T09:44:23;5.05;;;1.52;;
13933;SDS011;7039;52.168;9.866;2022-09-09T09:46:52;4.90;;;1.50;;
13933;SDS011;7039;52.168;9.866;2022-09-09T09:49:21;5.32;;;1.63;;
13933;SDS011;7039;52.168;9.866;2022-09-09T09:51:47;5.80;;;1.48;;
13933;SDS011;7039;52.168;9.866;2022-09-09T09:54:15;4.93;;;1.50;;
13933;SDS011;7039;52.168;9.866;2022-09-09T09:56:48;7.28;;;1.40;;
13933;SDS011;7039;52.168;9.866;2022-09-09T09:59:21;4.57;;;1.35;;
13933;SDS011;7039;52.168;9.866;2022-09-09T10:01:49;9.07;;;1.60;;
13933;SDS011;7039;52.168;9.866;2022-09-09T10:04:17;7.43;;;1.65;;
13933;SDS011;7039;52.168;9.866;2022-09-09T10:06:47;8.80;;;1.80;;
13933;SDS011;7039;52.168;9.866;2022-09-09T10:09:20;6.93;;;1.50;;
13933;SDS011;7039;52.168;9.866;2022-09-09T10:11:51;5.13;;;1.42;;
13933;SDS011;7039;52.168;9.866;2022-09-09T10:14:24;4.20;;;1.40;;
13933;SDS011;7039;52.168;9.866;2022-09-09T10:17:03;6.43;;;1.37;;
13933;SDS011;7039;52.168;9.866;2022-09-09T10:19:38;3.88;;;1.40;;
13933;SDS011;7039;52.168;9.866;2022-09-09T10:22:20;8.65;;;1.50;;
13933;SDS011;7039;52.168;9.866;2022-09-09T10:25:02;4.00;;;1.55;;
13933;SDS011;7039;52.168;9.866;2022-09-09T10:27:38;4.65;;;1.23;;
13933;SDS011;7039;52.168;9.866;2022-09-09T10:30:16;6.00;;;1.38;;
13933;SDS011;7039;52.168;9.866;2022-09-09T10:32:45;5.15;;;1.30;;
13933;SDS011;7039;52.168;9.866;2022-09-09T10:35:20;3.22;;;1.00;;
13933;SDS011;7039;52.168;9.866;2022-09-09T10:37:59;4.95;;;1.10;;
13933;SDS011;7039;52.168;9.866;2022-09-09T10:40:45;4.43;;;1.20;;
13933;SDS011;7039;52.168;9.866;2022-09-09T10:43:35;3.83;;;1.42;;
13933;SDS011;7039;52.168;9.866;2022-09-09T10:46:13;2.90;;;1.00;;
13933;SDS011;7039;52.168;9.866;2022-09-09T10:48:51;3.80;;;1.38;;
13933;SDS011;7039;52.168;9.866;2022-09-09T10:51:36;5.03;;;1.33;;
13933;SDS011;7039;52.168;9.866;2022-09-09T10:54:17;5.15;;;1.40;;
13933;SDS011;7039;52.168;9.866;2022-09-09T10:56:52;3.03;;;1.10;;
13933;SDS011;7039;52.168;9.866;2022-09-09T10:59:23;5.32;;;1.20;;
13933;SDS011;7039;52.168;9.866;2022-09-09T11:01:53;4.53;;;1.38;;
13933;SDS011;7039;52.168;9.866;2022-09-09T11:04:25;4.90;;;1.30;;
13933;SDS011;7039;52.168;9.866;2022-09-09T11:06:57;5.43;;;1.40;;
13933;SDS011;7039;52.168;9.866;2022-09-09T11:09:32;7.13;;;1.55;;
13933;SDS011;7039;52.168;9.866;2022-09-09T11:12:04;6.40;;;1.50;;
13933;SDS011;7039;52.168;9.866;2022-09-09T11:14:36;3.70;;;1.15;;
13933;SDS011;7039;52.168;9.866;2022-09-09T11:17:08;5.38;;;1.50;;
13933;SDS011;7039;52.168;9.866;2022-09-09T11:19:39;5.63;;;1.30;;
13933;SDS011;7039;52.168;9.866;2022-09-09T11:22:08;4.80;;;1.20;;
13933;SDS011;7039;52.168;9.866;2022-09-09T11:24:47;3.50;;;1.27;;
13933;SDS011;7039;52.168;9.866;2022-09-09T11:27:17;4.00;;;1.20;;
13933;SDS011;7039;52.168;9.866;2022-09-09T11:30:04;3.50;;;1.33;;
13933;SDS011;7039;52.168;9.866;2022-09-09T11:32:46;3.75;;;1.17;;
13933;SDS011;7039;52.168;9.866;2022-09-09T11:35:38;3.42;;;1.27;;
13933;SDS011;7039;52.168;9.866;2022-09-09T11:38:16;5.40;;;1.67;;
13933;SDS011;7039;52.168;9.866;2022-09-09T11:40:47;4.20;;;1.45;;
13933;SDS011;7039;52.168;9.866;2022-09-09T11:43:21;3.13;;;1.48;;
13933;SDS011;7039;52.168;9.866;2022-09-09T11:45:53;5.10;;;1.58;;
13933;SDS011;7039;52.168;9.866;2022-09-09T11:48:25;5.57;;;1.70;;
13933;SDS011;7039;52.168;9.866;2022-09-09T11:50:58;6.95;;;1.63;;
13933;SDS011;7039;52.168;9.866;2022-09-09T11:53:26;5.43;;;1.23;;
13933;SDS011;7039;52.168;9.866;2022-09-09T11:56:04;4.05;;;1.10;;
13933;SDS011;7039;52.168;9.866;2022-09-09T11:58:40;3.55;;;1.23;;
13933;SDS011;7039;52.168;9.866;2022-09-09T12:04:09;5.13;;;1.35;;
13933;SDS011;7039;52.168;9.866;2022-09-09T12:06:55;3.75;;;1.17;;
13933;SDS011;7039;52.168;9.866;2022-09-09T12:09:26;3.92;;;1.23;;
13933;SDS011;7039;52.168;9.866;2022-09-09T12:12:17;5.00;;;1.40;;
13933;SDS011;7039;52.168;9.866;2022-09-09T12:14:56;10.80;;;1.60;;
13933;SDS011;7039;52.168;9.866;2022-09-09T12:17:28;4.20;;;1.30;;
13933;SDS011;7039;52.168;9.866;2022-09-09T12:19:59;4.88;;;1.50;;
13933;SDS011;7039;52.168;9.866;2022-09-09T12:22:33;3.83;;;1.27;;
13933;SDS011;7039;52.168;9.866;2022-09-09T12:25:06;4.43;;;1.38;;
13933;SDS011;7039;52.168;9.866;2022-09-09T12:27:44;3.70;;;1.23;;
13933;SDS011;7039;52.168;9.866;2022-09-09T12:30:16;4.75;;;1.50;;
13933;SDS011;7039;52.168;9.866;2022-09-09T12:32:44;3.97;;;1.23;;
13933;SDS011;7039;52.168;9.866;2022-09-09T12:35:11;4.57;;;1.30;;
13933;SDS011;7039;52.168;9.866;2022-09-09T12:37:44;3.45;;;1.13;;
13933;SDS011;7039;52.168;9.866;2022-09-09T12:40:19;4.72;;;1.42;;
13933;SDS011;7039;52.168;9.866;2022-09-09T12:42:48;5.00;;;1.27;;
13933;SDS011;7039;52.168;9.866;2022-09-09T12:45:16;3.97;;;1.23;;
13933;SDS011;7039;52.168;9.866;2022-09-09T12:47:44;3.95;;;1.30;;
13933;SDS011;7039;52.168;9.866;2022-09-09T12:50:15;2.85;;;1.10;;
13933;SDS011;7039;52.168;9.866;2022-09-09T12:52:43;3.88;;;1.40;;
13933;SDS011;7039;52.168;9.866;2022-09-09T12:55:15;3.58;;;1.20;;
13933;SDS011;7039;52.168;9.866;2022-09-09T12:57:43;4.10;;;1.35;;
13933;SDS011;7039;52.168;9.866;2022-09-09T13:00:14;2.78;;;1.17;;
13933;SDS011;7039;52.168;9.866;2022-09-09T13:02:46;2.45;;;1.00;;
13933;SDS011;7039;52.168;9.866;2022-09-09T13:05:16;2.67;;;0.93;;
13933;SDS011;7039;52.168;9.866;2022-09-09T13:07:45;2.22;;;1.00;;
13933;SDS011;7039;52.168;9.866;2022-09-09T13:10:12;6.22;;;1.30;;
13933;SDS011;7039;52.168;9.866;2022-09-09T13:12:40;3.35;;;1.08;;
13933;SDS011;7039;52.168;9.866;2022-09-09T13:15:11;2.80;;;1.27;;
13933;SDS011;7039;52.168;9.866;2022-09-09T13:17:49;4.22;;;1.23;;
13933;SDS011;7039;52.168;9.866;2022-09-09T13:20:18;3.92;;;1.20;;
13933;SDS011;7039;52.168;9.866;2022-09-09T13:22:47;3.92;;;1.40;;
13933;SDS011;7039;52.168;9.866;2022-09-09T13:25:19;1.67;;;1.00;;
13933;SDS011;7039;52.168;9.866;2022-09-09T13:27:56;4.15;;;1.20;;
13933;SDS011;7039;52.168;9.866;2022-09-09T13:30:27;3.10;;;1.10;;
13933;SDS011;7039;52.168;9.866;2022-09-09T13:33:02;2.38;;;1.00;;
13933;SDS011;7039;52.168;9.866;2022-09-09T13:35:31;4.67;;;1.20;;
13933;SDS011;7039;52.168;9.866;2022-09-09T13:37:58;4.32;;;1.10;;
13933;SDS011;7039;52.168;9.866;2022-09-09T13:40:32;4.95;;;1.20;;
13933;SDS011;7039;52.168;9.866;2022-09-09T13:42:59;2.07;;;1.10;;
13933;SDS011;7039;52.168;9.866;2022-09-09T13:45:28;2.33;;;1.02;;
13933;SDS011;7039;52.168;9.866;2022-09-09T13:47:55;3.40;;;1.08;;
13933;SDS011;7039;52.168;9.866;2022-09-09T13:50:22;3.35;;;1.15;;
13933;SDS011;7039;52.168;9.866;2022-09-09T13:52:51;4.47;;;1.23;;
13933;SDS011;7039;52.168;9.866;2022-09-09T13:55:19;3.33;;;1.00;;
13933;SDS011;7039;52.168;9.866;2022-09-09T13:57:51;3.75;;;1.17;;
13933;SDS011;7039;52.168;9.866;2022-09-09T14:00:18;3.00;;;1.02;;
13933;SDS011;7039;52.168;9.866;2022-09-09T14:02:47;2.65;;;1.13;;
13933;SDS011;7039;52.168;9.866;2022-09-09T14:05:14;4.60;;;1.17;;
13933;SDS011;7039;52.168;9.866;2022-09-09T14:07:41;3.65;;;1.10;;
13933;SDS011;7039;52.168;9.866;2022-09-09T14:10:08;3.20;;;1.15;;
13933;SDS011;7039;52.168;9.866;2022-09-09T14:12:35;3.70;;;0.97;;
13933;SDS011;7039;52.168;9.866;2022-09-09T14:15:02;2.10;;;1.17;;
13933;SDS011;7039;52.168;9.866;2022-09-09T14:17:29;3.25;;;1.23;;
13933;SDS011;7039;52.168;9.866;2022-09-09T14:19:57;2.47;;;1.10;;
13933;SDS011;7039;52.168;9.866;2022-09-09T14:22:24;3.70;;;1.15;;
13933;SDS011;7039;52.168;9.866;2022-09-09T14:24:51;4.55;;;1.20;;
13933;SDS011;7039;52.168;9.866;2022-09-09T14:27:17;5.72;;;1.27;;
13933;SDS011;7039;52.168;9.866;2022-09-09T14:29:44;5.50;;;1.30;;
13933;SDS011;7039;52.168;9.866;2022-09-09T14:32:11;4.72;;;1.50;;
13933;SDS011;7039;52.168;9.866;2022-09-09T14:34:37;3.63;;;1.25;;
13933;SDS011;7039;52.168;9.866;2022-09-09T14:37:05;2.75;;;0.90;;
13933;SDS011;7039;52.168;9.866;2022-09-09T14:39:32;2.70;;;1.10;;
13933;SDS011;7039;52.168;9.866;2022-09-09T14:41:58;3.78;;;1.30;;
13933;SDS011;7039;52.168;9.866;2022-09-09T14:44:25;4.63;;;1.23;;
13933;SDS011;7039;52.168;9.866;2022-09-09T14:46:51;5.07;;;1.30;;
13933;SDS011;7039;52.168;9.866;2022-09-09T14:49:18;2.42;;;0.90;;
13933;SDS011;7039;52.168;9.866;2022-09-09T14:51:44;3.35;;;1.20;;
13933;SDS011;7039;52.168;9.866;2022-09-09T14:54:12;4.25;;;1.20;;
13933;SDS011;7039;52.168;9.866;2022-09-09T14:56:39;2.35;;;1.20;;
13933;SDS011;7039;52.168;9.866;2022-09-09T14:59:06;2.80;;;1.02;;
13933;SDS011;7039;52.168;9.866;2022-09-09T15:01:32;2.60;;;1.00;;
13933;SDS011;7039;52.168;9.866;2022-09-09T15:03:59;3.30;;;1.10;;
13933;SDS011;7039;52.168;9.866;2022-09-09T15:06:28;2.67;;;1.00;;
13933;SDS011;7039;52.168;9.866;2022-09-09T15:08:57;2.40;;;0.80;;
13933;SDS011;7039;52.168;9.866;2022-09-09T15:11:27;3.97;;;0.90;;
13933;SDS011;7039;52.168;9.866;2022-09-09T15:13:55;3.67;;;1.08;;
13933;SDS011;7039;52.168;9.866;2022-09-09T15:16:24;2.05;;;0.90;;
13933;SDS011;7039;52.168;9.866;2022-09-09T15:18:52;3.47;;;0.95;;
13933;SDS011;7039;52.168;9.866;2022-09-09T15:21:21;2.13;;;0.90;;
13933;SDS011;7039;52.168;9.866;2022-09-09T15:23:49;3.08;;;1.10;;
13933;SDS011;7039;52.168;9.866;2022-09-09T15:26:17;3.30;;;1.02;;